sensor_id;sensor_type;location;lat;lon;timestamp;P1;durP1;ratioP1;P2;durP2;ratioP2
57856;SDS011;43683;48.650;9.290;2024-01-15T00:02:14;15.95;;;8.27;;
57856;SDS011;43683;48.650;9.290;2024-01-15T00:04:41;18.77;;;8.75;;
57856;SDS011;43683;48.650;9.290;2024-01-15T00:07:07;20.95;;;9.23;;
57856;SDS011;43683;48.650;9.290;2024-01-15T00:09:33;17.83;;;10.05;;
57856;SDS011;43683;48.650;9.290;2024-01-15T00:11:59;19.48;;;9.52;;
57856;SDS011;43683;48.650;9.290;2024-01-15T00:14:25;24.33;;;10.20;;
57856;SDS011;43683;48.650;9.290;2024-01-15T00:16:51;17.70;;;9.98;;
57856;SDS011;43683;48.650;9.290;2024-01-15T00:19:17;16.23;;;8.75;;
57856;SDS011;43683;48.650;9.290;2024-01-15T00:21:43;22.15;;;9.02;;
57856;SDS011;43683;48.650;9.290;2024-01-15T00:24:09;17.23;;;9.15;;
57856;SDS011;43683;48.650;9.290;2024-01-15T00:26:34;17.80;;;8.65;;
57856;SDS011;43683;48.650;9.290;2024-01-15T00:29:00;19.35;;;9.88;;
57856;SDS011;43683;48.650;9.290;2024-01-15T00:31:25;19.58;;;9.68;;
57856;SDS011;43683;48.650;9.290;2024-01-15T00:33:51;22.13;;;10.43;;
57856;SDS011;43683;48.650;9.290;2024-01-15T00:36:17;17.48;;;9.55;;
57856;SDS011;43683;48.650;9.290;2024-01-15T00:38:43;18.10;;;8.60;;
57856;SDS011;43683;48.650;9.290;2024-01-15T00:41:09;20.67;;;12.15;;
57856;SDS011;43683;48.650;9.290;2024-01-15T00:43:34;18.58;;;8.90;;
57856;SDS011;43683;48.650;9.290;2024-01-15T00:46:03;17.10;;;8.57;;
57856;SDS011;43683;48.650;9.290;2024-01-15T00:48:29;18.02;;;9.15;;
57856;SDS011;43683;48.650;9.290;2024-01-15T00:50:54;16.45;;;7.80;;
57856;SDS011;43683;48.650;9.290;2024-01-15T00:53:20;16.15;;;8.68;;
57856;SDS011;43683;48.650;9.290;2024-01-15T00:55:47;16.00;;;7.97;;
57856;SDS011;43683;48.650;9.290;2024-01-15T00:58:15;16.75;;;7.95;;
57856;SDS011;43683;48.650;9.290;2024-01-15T01:00:41;17.75;;;7.53;;
57856;SDS011;43683;48.650;9.290;2024-01-15T01:03:07;14.85;;;8.00;;
57856;SDS011;43683;48.650;9.290;2024-01-15T01:05:33;16.17;;;8.23;;
57856;SDS011;43683;48.650;9.290;2024-01-15T01:07:59;15.85;;;8.00;;
57856;SDS011;43683;48.650;9.290;2024-01-15T01:10:25;16.10;;;8.43;;
57856;SDS011;43683;48.650;9.290;2024-01-15T01:12:50;17.00;;;8.73;;
57856;SDS011;43683;48.650;9.290;2024-01-15T01:15:16;13.25;;;6.80;;
57856;SDS011;43683;48.650;9.290;2024-01-15T01:17:41;18.17;;;8.25;;
57856;SDS011;43683;48.650;9.290;2024-01-15T01:20:07;15.20;;;7.78;;
57856;SDS011;43683;48.650;9.290;2024-01-15T01:22:34;18.42;;;8.73;;
57856;SDS011;43683;48.650;9.290;2024-01-15T01:25:00;18.50;;;8.32;;
57856;SDS011;43683;48.650;9.290;2024-01-15T01:27:25;18.05;;;7.70;;
57856;SDS011;43683;48.650;9.290;2024-01-15T01:29:51;18.27;;;8.35;;
57856;SDS011;43683;48.650;9.290;2024-01-15T01:32:17;17.67;;;8.63;;
57856;SDS011;43683;48.650;9.290;2024-01-15T01:34:42;13.00;;;6.47;;
57856;SDS011;43683;48.650;9.290;2024-01-15T01:37:08;15.80;;;8.43;;
57856;SDS011;43683;48.650;9.290;2024-01-15T01:39:34;17.55;;;8.48;;
57856;SDS011;43683;48.650;9.290;2024-01-15T01:42:00;19.05;;;8.55;;
57856;SDS011;43683;48.650;9.290;2024-01-15T01:44:26;17.60;;;8.05;;
57856;SDS011;43683;48.650;9.290;2024-01-15T01:46:51;21.48;;;8.55;;
57856;SDS011;43683;48.650;9.290;2024-01-15T01:49:17;15.85;;;8.07;;
57856;SDS011;43683;48.650;9.290;2024-01-15T01:51:43;18.02;;;8.60;;
57856;SDS011;43683;48.650;9.290;2024-01-15T01:54:09;19.05;;;8.63;;
57856;SDS011;43683;48.650;9.290;2024-01-15T01:56:38;21.38;;;8.57;;
57856;SDS011;43683;48.650;9.290;2024-01-15T01:59:04;14.57;;;7.00;;
57856;SDS011;43683;48.650;9.290;2024-01-15T02:01:31;18.95;;;8.00;;
57856;SDS011;43683;48.650;9.290;2024-01-15T02:03:57;17.67;;;8.07;;
57856;SDS011;43683;48.650;9.290;2024-01-15T02:06:23;17.33;;;8.00;;
57856;SDS011;43683;48.650;9.290;2024-01-15T02:08:48;17.42;;;8.35;;
57856;SDS011;43683;48.650;9.290;2024-01-15T02:11:15;16.75;;;8.60;;
57856;SDS011;43683;48.650;9.290;2024-01-15T02:13:40;16.15;;;7.80;;
57856;SDS011;43683;48.650;9.290;2024-01-15T02:16:06;17.25;;;8.38;;
57856;SDS011;43683;48.650;9.290;2024-01-15T02:18:42;21.45;;;8.73;;
57856;SDS011;43683;48.650;9.290;2024-01-15T02:21:08;14.35;;;7.32;;
57856;SDS011;43683;48.650;9.290;2024-01-15T02:23:34;16.77;;;8.52;;
57856;SDS011;43683;48.650;9.290;2024-01-15T02:26:00;18.95;;;7.82;;
57856;SDS011;43683;48.650;9.290;2024-01-15T02:28:26;14.90;;;6.85;;
57856;SDS011;43683;48.650;9.290;2024-01-15T02:30:52;16.30;;;7.45;;
57856;SDS011;43683;48.650;9.290;2024-01-15T02:33:17;14.65;;;7.18;;
57856;SDS011;43683;48.650;9.290;2024-01-15T02:35:43;16.73;;;7.97;;
57856;SDS011;43683;48.650;9.290;2024-01-15T02:38:08;14.48;;;7.55;;
57856;SDS011;43683;48.650;9.290;2024-01-15T02:40:34;15.98;;;7.43;;
57856;SDS011;43683;48.650;9.290;2024-01-15T02:43:00;13.48;;;7.68;;
57856;SDS011;43683;48.650;9.290;2024-01-15T02:45:26;15.70;;;7.07;;
57856;SDS011;43683;48.650;9.290;2024-01-15T02:47:52;17.60;;;7.85;;
57856;SDS011;43683;48.650;9.290;2024-01-15T02:50:18;16.65;;;7.85;;
57856;SDS011;43683;48.650;9.290;2024-01-15T02:52:43;18.27;;;7.72;;
57856;SDS011;43683;48.650;9.290;2024-01-15T02:55:09;18.90;;;8.68;;
57856;SDS011;43683;48.650;9.290;2024-01-15T02:57:34;16.83;;;8.23;;
57856;SDS011;43683;48.650;9.290;2024-01-15T03:00:00;15.55;;;7.85;;
57856;SDS011;43683;48.650;9.290;2024-01-15T03:02:25;18.58;;;8.07;;
57856;SDS011;43683;48.650;9.290;2024-01-15T03:04:51;14.25;;;6.95;;
57856;SDS011;43683;48.650;9.290;2024-01-15T03:07:17;15.15;;;7.32;;
57856;SDS011;43683;48.650;9.290;2024-01-15T03:09:42;15.68;;;7.93;;
57856;SDS011;43683;48.650;9.290;2024-01-15T03:12:08;12.48;;;6.82;;
57856;SDS011;43683;48.650;9.290;2024-01-15T03:14:34;15.73;;;7.18;;
57856;SDS011;43683;48.650;9.290;2024-01-15T03:17:00;13.15;;;7.40;;
57856;SDS011;43683;48.650;9.290;2024-01-15T03:19:26;14.32;;;6.95;;
57856;SDS011;43683;48.650;9.290;2024-01-15T03:21:51;16.45;;;7.75;;
57856;SDS011;43683;48.650;9.290;2024-01-15T03:24:17;14.52;;;7.45;;
57856;SDS011;43683;48.650;9.290;2024-01-15T03:26:42;16.30;;;6.82;;
57856;SDS011;43683;48.650;9.290;2024-01-15T03:29:08;15.60;;;6.97;;
57856;SDS011;43683;48.650;9.290;2024-01-15T03:31:34;15.90;;;7.63;;
57856;SDS011;43683;48.650;9.290;2024-01-15T03:33:59;17.52;;;6.93;;
57856;SDS011;43683;48.650;9.290;2024-01-15T03:36:25;17.17;;;7.63;;
57856;SDS011;43683;48.650;9.290;2024-01-15T03:38:50;17.17;;;7.80;;
57856;SDS011;43683;48.650;9.290;2024-01-15T03:41:16;17.77;;;7.35;;
57856;SDS011;43683;48.650;9.290;2024-01-15T03:43:41;14.65;;;6.63;;
57856;SDS011;43683;48.650;9.290;2024-01-15T03:46:07;16.08;;;6.95;;
57856;SDS011;43683;48.650;9.290;2024-01-15T03:48:32;14.70;;;6.95;;
57856;SDS011;43683;48.650;9.290;2024-01-15T03:50:58;18.33;;;7.25;;
57856;SDS011;43683;48.650;9.290;2024-01-15T03:53:23;13.23;;;7.32;;
57856;SDS011;43683;48.650;9.290;2024-01-15T03:55:49;15.52;;;6.35;;
57856;SDS011;43683;48.650;9.290;2024-01-15T03:58:15;15.82;;;7.47;;
57856;SDS011;43683;48.650;9.290;2024-01-15T04:00:41;14.63;;;7.43;;
57856;SDS011;43683;48.650;9.290;2024-01-15T04:03:07;14.50;;;6.50;;
57856;SDS011;43683;48.650;9.290;2024-01-15T04:05:32;13.73;;;6.75;;
57856;SDS011;43683;48.650;9.290;2024-01-15T04:07:58;13.95;;;6.68;;
57856;SDS011;43683;48.650;9.290;2024-01-15T04:10:23;12.48;;;5.65;;
57856;SDS011;43683;48.650;9.290;2024-01-15T04:12:49;14.85;;;6.45;;
57856;SDS011;43683;48.650;9.290;2024-01-15T04:15:15;13.90;;;6.13;;
57856;SDS011;43683;48.650;9.290;2024-01-15T04:17:40;13.55;;;6.03;;
57856;SDS011;43683;48.650;9.290;2024-01-15T04:20:06;11.68;;;5.82;;
57856;SDS011;43683;48.650;9.290;2024-01-15T04:22:33;16.63;;;7.40;;
57856;SDS011;43683;48.650;9.290;2024-01-15T04:25:01;14.73;;;6.53;;
57856;SDS011;43683;48.650;9.290;2024-01-15T04:27:27;15.13;;;7.15;;
57856;SDS011;43683;48.650;9.290;2024-01-15T04:29:53;15.25;;;6.78;;
57856;SDS011;43683;48.650;9.290;2024-01-15T04:32:18;16.38;;;7.40;;
57856;SDS011;43683;48.650;9.290;2024-01-15T04:34:44;17.95;;;8.48;;
57856;SDS011;43683;48.650;9.290;2024-01-15T04:37:10;13.43;;;6.78;;
57856;SDS011;43683;48.650;9.290;2024-01-15T04:39:35;15.95;;;7.45;;
57856;SDS011;43683;48.650;9.290;2024-01-15T04:42:01;18.75;;;7.93;;
57856;SDS011;43683;48.650;9.290;2024-01-15T04:44:26;17.92;;;7.35;;
57856;SDS011;43683;48.650;9.290;2024-01-15T04:46:52;15.57;;;7.32;;
57856;SDS011;43683;48.650;9.290;2024-01-15T04:49:17;13.70;;;6.70;;
57856;SDS011;43683;48.650;9.290;2024-01-15T04:51:43;15.48;;;7.80;;
57856;SDS011;43683;48.650;9.290;2024-01-15T04:54:08;14.55;;;7.95;;
57856;SDS011;43683;48.650;9.290;2024-01-15T04:56:34;12.32;;;7.28;;
57856;SDS011;43683;48.650;9.290;2024-01-15T04:58:59;13.13;;;7.53;;
57856;SDS011;43683;48.650;9.290;2024-01-15T05:01:25;15.93;;;7.82;;
57856;SDS011;43683;48.650;9.290;2024-01-15T05:03:54;17.25;;;7.50;;
57856;SDS011;43683;48.650;9.290;2024-01-15T05:06:20;15.35;;;6.15;;
57856;SDS011;43683;48.650;9.290;2024-01-15T05:08:45;15.48;;;7.47;;
57856;SDS011;43683;48.650;9.290;2024-01-15T05:11:11;16.60;;;7.68;;
57856;SDS011;43683;48.650;9.290;2024-01-15T05:13:36;15.18;;;7.15;;
57856;SDS011;43683;48.650;9.290;2024-01-15T05:16:02;15.13;;;7.07;;
57856;SDS011;43683;48.650;9.290;2024-01-15T05:18:27;15.93;;;7.78;;
57856;SDS011;43683;48.650;9.290;2024-01-15T05:20:53;17.20;;;8.70;;
57856;SDS011;43683;48.650;9.290;2024-01-15T05:23:18;19.55;;;8.07;;
57856;SDS011;43683;48.650;9.290;2024-01-15T05:25:44;20.42;;;7.93;;
57856;SDS011;43683;48.650;9.290;2024-01-15T05:28:09;19.02;;;7.78;;
57856;SDS011;43683;48.650;9.290;2024-01-15T05:30:35;15.93;;;7.95;;
57856;SDS011;43683;48.650;9.290;2024-01-15T05:33:00;18.77;;;8.23;;
57856;SDS011;43683;48.650;9.290;2024-01-15T05:35:26;14.38;;;7.43;;
57856;SDS011;43683;48.650;9.290;2024-01-15T05:37:51;17.38;;;7.47;;
57856;SDS011;43683;48.650;9.290;2024-01-15T05:40:17;15.55;;;7.15;;
57856;SDS011;43683;48.650;9.290;2024-01-15T05:42:42;15.77;;;7.07;;
57856;SDS011;43683;48.650;9.290;2024-01-15T05:45:08;17.75;;;8.30;;
57856;SDS011;43683;48.650;9.290;2024-01-15T05:47:34;15.48;;;8.75;;
57856;SDS011;43683;48.650;9.290;2024-01-15T05:50:00;18.73;;;8.00;;
57856;SDS011;43683;48.650;9.290;2024-01-15T05:52:26;15.15;;;7.60;;
57856;SDS011;43683;48.650;9.290;2024-01-15T05:54:52;17.40;;;8.02;;
57856;SDS011;43683;48.650;9.290;2024-01-15T05:57:17;19.75;;;8.45;;
57856;SDS011;43683;48.650;9.290;2024-01-15T05:59:43;16.95;;;7.70;;
57856;SDS011;43683;48.650;9.290;2024-01-15T06:02:09;18.38;;;8.90;;
57856;SDS011;43683;48.650;9.290;2024-01-15T06:04:35;15.35;;;7.68;;
57856;SDS011;43683;48.650;9.290;2024-01-15T06:07:01;19.67;;;8.32;;
57856;SDS011;43683;48.650;9.290;2024-01-15T06:09:26;15.82;;;7.63;;
57856;SDS011;43683;48.650;9.290;2024-01-15T06:11:53;14.35;;;7.15;;
57856;SDS011;43683;48.650;9.290;2024-01-15T06:14:18;15.52;;;8.48;;
57856;SDS011;43683;48.650;9.290;2024-01-15T06:16:44;18.13;;;9.48;;
57856;SDS011;43683;48.650;9.290;2024-01-15T06:19:09;19.10;;;9.27;;
57856;SDS011;43683;48.650;9.290;2024-01-15T06:21:35;12.23;;;5.90;;
57856;SDS011;43683;48.650;9.290;2024-01-15T06:24:00;17.52;;;8.02;;
57856;SDS011;43683;48.650;9.290;2024-01-15T06:26:26;18.63;;;7.88;;
57856;SDS011;43683;48.650;9.290;2024-01-15T06:28:52;14.93;;;8.10;;
57856;SDS011;43683;48.650;9.290;2024-01-15T06:31:17;16.45;;;8.90;;
57856;SDS011;43683;48.650;9.290;2024-01-15T06:33:43;15.20;;;7.80;;
57856;SDS011;43683;48.650;9.290;2024-01-15T06:36:10;17.05;;;7.90;;
57856;SDS011;43683;48.650;9.290;2024-01-15T06:38:36;14.63;;;7.70;;
57856;SDS011;43683;48.650;9.290;2024-01-15T06:41:01;14.65;;;7.47;;
57856;SDS011;43683;48.650;9.290;2024-01-15T06:43:27;17.30;;;8.88;;
57856;SDS011;43683;48.650;9.290;2024-01-15T06:45:52;15.10;;;7.50;;
57856;SDS011;43683;48.650;9.290;2024-01-15T06:48:18;16.98;;;7.65;;
57856;SDS011;43683;48.650;9.290;2024-01-15T06:50:43;14.45;;;7.55;;
57856;SDS011;43683;48.650;9.290;2024-01-15T06:53:09;14.15;;;8.05;;
57856;SDS011;43683;48.650;9.290;2024-01-15T06:55:34;17.73;;;8.13;;
57856;SDS011;43683;48.650;9.290;2024-01-15T06:58:00;12.48;;;6.80;;
57856;SDS011;43683;48.650;9.290;2024-01-15T07:00:26;13.82;;;6.68;;
57856;SDS011;43683;48.650;9.290;2024-01-15T07:02:52;13.55;;;7.32;;
57856;SDS011;43683;48.650;9.290;2024-01-15T07:05:18;14.57;;;6.53;;
57856;SDS011;43683;48.650;9.290;2024-01-15T07:07:45;18.60;;;6.97;;
57856;SDS011;43683;48.650;9.290;2024-01-15T07:10:10;12.73;;;6.32;;
57856;SDS011;43683;48.650;9.290;2024-01-15T07:12:36;14.52;;;7.72;;
57856;SDS011;43683;48.650;9.290;2024-01-15T07:15:01;13.82;;;7.85;;
57856;SDS011;43683;48.650;9.290;2024-01-15T07:17:27;12.27;;;5.93;;
57856;SDS011;43683;48.650;9.290;2024-01-15T07:19:53;10.35;;;5.20;;
57856;SDS011;43683;48.650;9.290;2024-01-15T07:22:18;14.02;;;7.40;;
57856;SDS011;43683;48.650;9.290;2024-01-15T07:24:44;12.25;;;6.72;;
57856;SDS011;43683;48.650;9.290;2024-01-15T07:27:10;12.30;;;6.53;;
57856;SDS011;43683;48.650;9.290;2024-01-15T07:29:35;11.00;;;5.90;;
57856;SDS011;43683;48.650;9.290;2024-01-15T07:32:03;11.82;;;6.25;;
57856;SDS011;43683;48.650;9.290;2024-01-15T07:34:29;14.68;;;6.13;;
57856;SDS011;43683;48.650;9.290;2024-01-15T07:36:54;15.95;;;6.78;;
57856;SDS011;43683;48.650;9.290;2024-01-15T07:39:22;14.93;;;6.32;;
57856;SDS011;43683;48.650;9.290;2024-01-15T07:41:49;16.13;;;7.57;;
57856;SDS011;43683;48.650;9.290;2024-01-15T07:44:15;11.60;;;6.20;;
57856;SDS011;43683;48.650;9.290;2024-01-15T07:46:44;13.82;;;7.03;;
57856;SDS011;43683;48.650;9.290;2024-01-15T07:49:10;15.80;;;7.90;;
57856;SDS011;43683;48.650;9.290;2024-01-15T07:51:36;10.65;;;5.93;;
57856;SDS011;43683;48.650;9.290;2024-01-15T07:54:01;15.32;;;7.35;;
57856;SDS011;43683;48.650;9.290;2024-01-15T07:56:27;13.00;;;6.47;;
57856;SDS011;43683;48.650;9.290;2024-01-15T07:58:53;13.70;;;6.57;;
57856;SDS011;43683;48.650;9.290;2024-01-15T08:01:18;14.65;;;5.95;;
57856;SDS011;43683;48.650;9.290;2024-01-15T08:03:44;12.18;;;5.20;;
57856;SDS011;43683;48.650;9.290;2024-01-15T08:06:09;9.25;;;5.35;;
57856;SDS011;43683;48.650;9.290;2024-01-15T08:08:35;14.20;;;6.88;;
57856;SDS011;43683;48.650;9.290;2024-01-15T08:11:02;10.80;;;5.95;;
57856;SDS011;43683;48.650;9.290;2024-01-15T08:13:27;11.23;;;5.25;;
57856;SDS011;43683;48.650;9.290;2024-01-15T08:15:53;10.00;;;5.25;;
57856;SDS011;43683;48.650;9.290;2024-01-15T08:18:18;11.90;;;4.95;;
57856;SDS011;43683;48.650;9.290;2024-01-15T08:20:45;10.68;;;5.30;;
57856;SDS011;43683;48.650;9.290;2024-01-15T08:23:11;10.43;;;5.88;;
57856;SDS011;43683;48.650;9.290;2024-01-15T08:25:36;10.60;;;6.28;;
57856;SDS011;43683;48.650;9.290;2024-01-15T08:28:02;13.40;;;6.80;;
57856;SDS011;43683;48.650;9.290;2024-01-15T08:30:28;12.95;;;6.93;;
57856;SDS011;43683;48.650;9.290;2024-01-15T08:32:54;11.02;;;5.28;;
57856;SDS011;43683;48.650;9.290;2024-01-15T08:35:19;10.63;;;5.55;;
57856;SDS011;43683;48.650;9.290;2024-01-15T08:37:48;13.10;;;6.55;;
57856;SDS011;43683;48.650;9.290;2024-01-15T08:40:16;11.57;;;5.00;;
57856;SDS011;43683;48.650;9.290;2024-01-15T08:42:42;9.55;;;5.20;;
57856;SDS011;43683;48.650;9.290;2024-01-15T08:45:08;12.02;;;6.05;;
57856;SDS011;43683;48.650;9.290;2024-01-15T08:47:34;10.13;;;5.60;;
57856;SDS011;43683;48.650;9.290;2024-01-15T08:50:01;9.98;;;5.03;;
57856;SDS011;43683;48.650;9.290;2024-01-15T08:54:54;10.38;;;5.10;;
57856;SDS011;43683;48.650;9.290;2024-01-15T08:57:20;12.35;;;5.75;;
57856;SDS011;43683;48.650;9.290;2024-01-15T08:59:47;11.25;;;5.07;;
57856;SDS011;43683;48.650;9.290;2024-01-15T09:02:12;12.27;;;6.07;;
57856;SDS011;43683;48.650;9.290;2024-01-15T09:04:38;8.88;;;4.55;;
57856;SDS011;43683;48.650;9.290;2024-01-15T09:07:03;7.82;;;4.65;;
57856;SDS011;43683;48.650;9.290;2024-01-15T09:09:29;6.97;;;3.85;;
57856;SDS011;43683;48.650;9.290;2024-01-15T09:11:55;6.65;;;3.83;;
57856;SDS011;43683;48.650;9.290;2024-01-15T09:14:20;9.40;;;4.50;;
57856;SDS011;43683;48.650;9.290;2024-01-15T09:16:47;8.07;;;4.27;;
57856;SDS011;43683;48.650;9.290;2024-01-15T09:19:13;8.35;;;4.20;;
57856;SDS011;43683;48.650;9.290;2024-01-15T09:21:38;8.32;;;3.88;;
57856;SDS011;43683;48.650;9.290;2024-01-15T09:24:04;6.35;;;4.00;;
57856;SDS011;43683;48.650;9.290;2024-01-15T09:26:30;7.00;;;4.50;;
57856;SDS011;43683;48.650;9.290;2024-01-15T09:28:57;7.40;;;4.25;;
57856;SDS011;43683;48.650;9.290;2024-01-15T09:31:22;6.68;;;4.00;;
57856;SDS011;43683;48.650;9.290;2024-01-15T09:33:48;9.90;;;4.45;;
57856;SDS011;43683;48.650;9.290;2024-01-15T09:36:14;8.18;;;4.53;;
57856;SDS011;43683;48.650;9.290;2024-01-15T09:38:40;8.23;;;4.53;;
57856;SDS011;43683;48.650;9.290;2024-01-15T09:41:06;8.80;;;4.90;;
57856;SDS011;43683;48.650;9.290;2024-01-15T09:43:32;7.18;;;3.97;;
57856;SDS011;43683;48.650;9.290;2024-01-15T09:45:58;7.13;;;3.97;;
57856;SDS011;43683;48.650;9.290;2024-01-15T09:48:24;11.13;;;4.43;;
57856;SDS011;43683;48.650;9.290;2024-01-15T09:50:50;8.85;;;4.57;;
57856;SDS011;43683;48.650;9.290;2024-01-15T09:53:15;9.15;;;4.35;;
57856;SDS011;43683;48.650;9.290;2024-01-15T09:55:41;6.90;;;3.85;;
57856;SDS011;43683;48.650;9.290;2024-01-15T09:58:07;6.88;;;3.60;;
57856;SDS011;43683;48.650;9.290;2024-01-15T10:00:33;7.93;;;3.97;;
57856;SDS011;43683;48.650;9.290;2024-01-15T10:03:01;7.50;;;4.20;;
57856;SDS011;43683;48.650;9.290;2024-01-15T10:05:28;6.40;;;3.88;;
57856;SDS011;43683;48.650;9.290;2024-01-15T10:07:54;7.93;;;3.95;;
57856;SDS011;43683;48.650;9.290;2024-01-15T10:10:22;5.90;;;3.45;;
57856;SDS011;43683;48.650;9.290;2024-01-15T10:12:49;6.35;;;3.42;;
57856;SDS011;43683;48.650;9.290;2024-01-15T10:15:14;6.22;;;3.30;;
57856;SDS011;43683;48.650;9.290;2024-01-15T10:17:41;7.35;;;3.28;;
57856;SDS011;43683;48.650;9.290;2024-01-15T10:20:10;6.97;;;3.65;;
57856;SDS011;43683;48.650;9.290;2024-01-15T10:22:39;6.57;;;3.25;;
57856;SDS011;43683;48.650;9.290;2024-01-15T10:25:12;5.65;;;3.25;;
57856;SDS011;43683;48.650;9.290;2024-01-15T10:27:39;6.60;;;3.25;;
57856;SDS011;43683;48.650;9.290;2024-01-15T10:30:07;5.57;;;3.05;;
57856;SDS011;43683;48.650;9.290;2024-01-15T10:32:33;6.50;;;2.75;;
57856;SDS011;43683;48.650;9.290;2024-01-15T10:34:59;5.57;;;2.75;;
57856;SDS011;43683;48.650;9.290;2024-01-15T10:37:24;6.53;;;2.85;;
57856;SDS011;43683;48.650;9.290;2024-01-15T10:39:50;4.85;;;3.03;;
57856;SDS011;43683;48.650;9.290;2024-01-15T10:42:16;8.40;;;3.58;;
57856;SDS011;43683;48.650;9.290;2024-01-15T10:44:43;4.75;;;2.28;;
57856;SDS011;43683;48.650;9.290;2024-01-15T10:47:09;5.95;;;3.28;;
57856;SDS011;43683;48.650;9.290;2024-01-15T10:49:36;6.78;;;3.15;;
57856;SDS011;43683;48.650;9.290;2024-01-15T10:52:02;6.68;;;3.65;;
57856;SDS011;43683;48.650;9.290;2024-01-15T10:54:28;4.53;;;2.92;;
57856;SDS011;43683;48.650;9.290;2024-01-15T10:56:55;8.05;;;4.00;;
57856;SDS011;43683;48.650;9.290;2024-01-15T10:59:21;6.65;;;3.53;;
57856;SDS011;43683;48.650;9.290;2024-01-15T11:01:50;6.53;;;3.25;;
57856;SDS011;43683;48.650;9.290;2024-01-15T11:04:21;5.43;;;3.13;;
57856;SDS011;43683;48.650;9.290;2024-01-15T11:06:49;6.40;;;3.05;;
57856;SDS011;43683;48.650;9.290;2024-01-15T11:09:18;16.00;;;4.55;;
57856;SDS011;43683;48.650;9.290;2024-01-15T11:11:44;7.07;;;3.00;;
57856;SDS011;43683;48.650;9.290;2024-01-15T11:14:24;8.98;;;3.60;;
57856;SDS011;43683;48.650;9.290;2024-01-15T11:17:00;10.48;;;3.90;;
57856;SDS011;43683;48.650;9.290;2024-01-15T11:19:34;5.82;;;3.05;;
57856;SDS011;43683;48.650;9.290;2024-01-15T11:22:07;5.70;;;2.88;;
57856;SDS011;43683;48.650;9.290;2024-01-15T11:29:30;8.75;;;3.33;;
57856;SDS011;43683;48.650;9.290;2024-01-15T11:31:58;3.85;;;2.35;;
57856;SDS011;43683;48.650;9.290;2024-01-15T11:37:10;9.45;;;3.60;;
57856;SDS011;43683;48.650;9.290;2024-01-15T11:39:39;5.85;;;3.10;;
57856;SDS011;43683;48.650;9.290;2024-01-15T11:42:07;10.32;;;3.65;;
57856;SDS011;43683;48.650;9.290;2024-01-15T11:44:34;6.65;;;3.58;;
57856;SDS011;43683;48.650;9.290;2024-01-15T11:47:00;6.20;;;3.33;;
57856;SDS011;43683;48.650;9.290;2024-01-15T11:52:34;6.55;;;3.83;;
57856;SDS011;43683;48.650;9.290;2024-01-15T11:55:02;8.13;;;4.20;;
57856;SDS011;43683;48.650;9.290;2024-01-15T11:57:44;7.40;;;3.85;;
57856;SDS011;43683;48.650;9.290;2024-01-15T12:00:12;8.13;;;4.20;;
57856;SDS011;43683;48.650;9.290;2024-01-15T12:02:39;5.40;;;2.92;;
57856;SDS011;43683;48.650;9.290;2024-01-15T12:05:06;5.18;;;3.38;;
57856;SDS011;43683;48.650;9.290;2024-01-15T12:07:37;5.05;;;3.30;;
57856;SDS011;43683;48.650;9.290;2024-01-15T12:10:07;8.68;;;4.10;;
57856;SDS011;43683;48.650;9.290;2024-01-15T12:15:39;7.55;;;4.22;;
57856;SDS011;43683;48.650;9.290;2024-01-15T12:18:08;6.05;;;3.72;;
57856;SDS011;43683;48.650;9.290;2024-01-15T12:20:35;9.93;;;4.03;;
57856;SDS011;43683;48.650;9.290;2024-01-15T12:23:01;6.75;;;3.83;;
57856;SDS011;43683;48.650;9.290;2024-01-15T12:25:30;4.18;;;2.85;;
57856;SDS011;43683;48.650;9.290;2024-01-15T12:27:57;5.85;;;3.33;;
57856;SDS011;43683;48.650;9.290;2024-01-15T12:30:24;9.43;;;4.30;;
57856;SDS011;43683;48.650;9.290;2024-01-15T12:32:51;7.07;;;4.20;;
57856;SDS011;43683;48.650;9.290;2024-01-15T12:35:16;7.50;;;4.15;;
57856;SDS011;43683;48.650;9.290;2024-01-15T12:37:42;8.35;;;3.95;;
57856;SDS011;43683;48.650;9.290;2024-01-15T12:40:09;7.82;;;4.75;;
57856;SDS011;43683;48.650;9.290;2024-01-15T12:42:44;7.55;;;4.40;;
57856;SDS011;43683;48.650;9.290;2024-01-15T12:45:11;5.97;;;3.40;;
57856;SDS011;43683;48.650;9.290;2024-01-15T12:47:37;6.78;;;3.70;;
57856;SDS011;43683;48.650;9.290;2024-01-15T12:50:10;9.63;;;4.75;;
57856;SDS011;43683;48.650;9.290;2024-01-15T12:52:37;8.52;;;4.28;;
57856;SDS011;43683;48.650;9.290;2024-01-15T12:55:06;6.07;;;3.95;;
57856;SDS011;43683;48.650;9.290;2024-01-15T12:57:35;7.22;;;3.80;;
57856;SDS011;43683;48.650;9.290;2024-01-15T13:00:01;8.63;;;4.30;;
57856;SDS011;43683;48.650;9.290;2024-01-15T13:02:31;7.72;;;3.97;;
57856;SDS011;43683;48.650;9.290;2024-01-15T13:04:58;6.38;;;4.47;;
57856;SDS011;43683;48.650;9.290;2024-01-15T13:07:24;7.72;;;4.15;;
57856;SDS011;43683;48.650;9.290;2024-01-15T13:09:50;7.80;;;4.53;;
57856;SDS011;43683;48.650;9.290;2024-01-15T13:12:18;11.32;;;5.57;;
57856;SDS011;43683;48.650;9.290;2024-01-15T13:14:45;7.95;;;4.45;;
57856;SDS011;43683;48.650;9.290;2024-01-15T13:17:10;7.75;;;4.35;;
57856;SDS011;43683;48.650;9.290;2024-01-15T13:19:36;9.32;;;4.57;;
57856;SDS011;43683;48.650;9.290;2024-01-15T13:22:01;8.82;;;5.22;;
57856;SDS011;43683;48.650;9.290;2024-01-15T13:24:31;12.05;;;5.95;;
57856;SDS011;43683;48.650;9.290;2024-01-15T13:26:57;8.48;;;5.70;;
57856;SDS011;43683;48.650;9.290;2024-01-15T13:29:22;10.05;;;5.97;;
57856;SDS011;43683;48.650;9.290;2024-01-15T13:31:48;9.98;;;5.93;;
57856;SDS011;43683;48.650;9.290;2024-01-15T13:34:14;10.90;;;5.88;;
57856;SDS011;43683;48.650;9.290;2024-01-15T13:36:39;9.60;;;5.53;;
57856;SDS011;43683;48.650;9.290;2024-01-15T13:39:06;9.68;;;5.35;;
57856;SDS011;43683;48.650;9.290;2024-01-15T13:41:34;9.80;;;5.57;;
57856;SDS011;43683;48.650;9.290;2024-01-15T13:44:00;8.20;;;4.95;;
57856;SDS011;43683;48.650;9.290;2024-01-15T13:46:25;11.95;;;5.68;;
57856;SDS011;43683;48.650;9.290;2024-01-15T13:48:54;10.30;;;5.75;;
57856;SDS011;43683;48.650;9.290;2024-01-15T13:51:22;9.57;;;6.22;;
57856;SDS011;43683;48.650;9.290;2024-01-15T13:53:48;8.90;;;5.43;;
57856;SDS011;43683;48.650;9.290;2024-01-15T13:56:15;11.23;;;6.57;;
57856;SDS011;43683;48.650;9.290;2024-01-15T13:58:40;7.90;;;4.68;;
57856;SDS011;43683;48.650;9.290;2024-01-15T14:01:06;10.05;;;5.47;;
57856;SDS011;43683;48.650;9.290;2024-01-15T14:03:31;9.43;;;5.18;;
57856;SDS011;43683;48.650;9.290;2024-01-15T14:05:57;13.38;;;5.93;;
57856;SDS011;43683;48.650;9.290;2024-01-15T14:08:23;23.55;;;11.27;;
57856;SDS011;43683;48.650;9.290;2024-01-15T14:10:49;28.45;;;11.70;;
57856;SDS011;43683;48.650;9.290;2024-01-15T14:13:14;9.70;;;5.32;;
57856;SDS011;43683;48.650;9.290;2024-01-15T14:15:40;11.05;;;5.97;;
57856;SDS011;43683;48.650;9.290;2024-01-15T14:18:05;7.78;;;5.63;;
57856;SDS011;43683;48.650;9.290;2024-01-15T14:20:31;10.25;;;6.30;;
57856;SDS011;43683;48.650;9.290;2024-01-15T14:22:57;12.57;;;7.00;;
57856;SDS011;43683;48.650;9.290;2024-01-15T14:25:23;12.48;;;6.88;;
57856;SDS011;43683;48.650;9.290;2024-01-15T14:27:51;12.07;;;6.13;;
57856;SDS011;43683;48.650;9.290;2024-01-15T14:30:17;8.88;;;5.72;;
57856;SDS011;43683;48.650;9.290;2024-01-15T14:32:43;8.13;;;4.63;;
57856;SDS011;43683;48.650;9.290;2024-01-15T14:35:08;8.25;;;5.18;;
57856;SDS011;43683;48.650;9.290;2024-01-15T14:37:38;8.55;;;4.63;;
57856;SDS011;43683;48.650;9.290;2024-01-15T14:40:04;6.68;;;4.43;;
57856;SDS011;43683;48.650;9.290;2024-01-15T14:42:33;9.98;;;4.72;;
57856;SDS011;43683;48.650;9.290;2024-01-15T14:44:59;8.25;;;4.70;;
57856;SDS011;43683;48.650;9.290;2024-01-15T14:47:26;6.83;;;4.13;;
57856;SDS011;43683;48.650;9.290;2024-01-15T14:49:52;9.30;;;4.80;;